Grande Mariner — WCY6594 — position and weather

sailwx.info

Track history (hours):
 
Tides and Currents Weather Stations Pressure Air Temp Water Temp Dewpoint Dewpoint Depression Visibility Wind Speed Wind Dir Waves Ship Positions

Grande Mariner

Owner: AMERICAN CANADIAN CARIBBEAN LINE INC, WARREN, RI. More information available from US FCC via Universal Licensing System and Coast Guard Vessel Documentation Center.

Last reported at 2017-Feb-17 14:25 UTC. Time now 2017-Mar-23 10:12 UTC.
Position N 41°43' W 071°17'.
Warning: this ship's position is 33 days out of date.

Length 56 m; draft 2 m.

Type: Passenger vessel. MMSI: 369024000.

Date/timePositionNaut miles runAvg speedWind from/ knotsBaromVisibWave heightAir tempDewpointWater temp
2017-Feb-17 14:25N 41°43' W 071°17'0 0.0
2017-Feb-17 11:18N 41°43' W 071°17'  
2017-Feb-12 13:33N 41°43' W 071°17'6 5.4
2017-Feb-12 12:27N 41°38' W 071°18'45 4.1
2017-Feb-12 01:21N 41°14' W 072°09'3 3.1
2017-Feb-12 00:33N 41°13' W 072°13'3 3.1
2017-Feb-11 23:30N 41°12' W 072°17'4 4.0
2017-Feb-11 22:33N 41°11' W 072°22'5 5.0
2017-Feb-11 21:34N 41°10' W 072°28'62 6.9
2017-Feb-11 12:33N 40°50' W 073°46'1111.0
2017-Feb-11 11:33N 40°44' W 073°58'1110.6
2017-Feb-11 10:32N 40°34' W 074°02'4410.6
2017-Feb-11 06:24N 39°50' W 074°02'910.7
2017-Feb-11 05:31N 39°41' W 074°05'63 6.9
2017-Feb-10 20:24N 39°11' W 075°17'1113.4
2017-Feb-10 19:33N 39°20' W 075°25'1211.9
2017-Feb-10 18:33N 39°30' W 075°33'6 6.3
2017-Feb-10 17:33N 39°33' W 075°41'8 7.9
2017-Feb-10 16:33N 39°32' W 075°51'9 9.0
2017-Feb-10 15:33N 39°26' W 076°00'2410.2
2017-Feb-10 13:10N 39°11' W 076°25'6 9.8
2017-Feb-10 12:31N 39°14' W 076°32'4 4.6
2017-Feb-10 11:33N 39°17' W 076°36'0 0.0
2017-Feb-10 10:33N 39°17' W 076°36'0 0.0
2017-Feb-10 09:33N 39°17' W 076°36'0 0.0
2017-Feb-10 08:33N 39°17' W 076°36'0 0.0
2017-Feb-10 07:33N 39°17' W 076°36'0 0.0
2017-Feb-10 06:33N 39°17' W 076°36'0 0.0
2017-Feb-10 05:33N 39°17' W 076°36'0 0.0
2017-Feb-10 04:33N 39°17' W 076°36'0 0.0
2017-Feb-10 03:33N 39°17' W 076°36'0 0.0
2017-Feb-10 02:33N 39°17' W 076°36'0 0.0
2017-Feb-10 01:33N 39°17' W 076°36'0 0.0
2017-Feb-10 00:33N 39°17' W 076°36'0 0.0
2017-Feb-09 23:33N 39°17' W 076°36'0 0.0
2017-Feb-09 22:33N 39°17' W 076°36'0 0.0
2017-Feb-09 21:33N 39°17' W 076°36'0 0.0
2017-Feb-09 20:33N 39°17' W 076°36'0 0.0
2017-Feb-09 19:33N 39°17' W 076°36'0 0.0
2017-Feb-09 18:33N 39°17' W 076°36'0 0.0
2017-Feb-09 17:33N 39°17' W 076°36'0 0.0
2017-Feb-09 16:33N 39°17' W 076°36'0 0.0
2017-Feb-09 15:33N 39°17' W 076°36'0 0.0
2017-Feb-09 14:34N 39°17' W 076°36'0 0.0
2017-Feb-09 13:32N 39°17' W 076°36'0 0.0
2017-Feb-09 12:33N 39°17' W 076°36'0 0.0
2017-Feb-09 11:33N 39°17' W 076°36'0 0.0
2017-Feb-09 10:33N 39°17' W 076°36'0 0.0
2017-Feb-09 09:33N 39°17' W 076°36'0 0.0
2017-Feb-09 08:33N 39°17' W 076°36'0 0.0
2017-Feb-09 07:33N 39°17' W 076°36'0 0.0
2017-Feb-09 06:33N 39°17' W 076°36'0 0.0
2017-Feb-09 05:33N 39°17' W 076°36'0 0.0
2017-Feb-09 04:33N 39°17' W 076°36'0 0.0
2017-Feb-09 03:33N 39°17' W 076°36'0 0.0
2017-Feb-09 02:33N 39°17' W 076°36'0 0.0
2017-Feb-09 01:33N 39°17' W 076°36'0 0.0
2017-Feb-09 00:33N 39°17' W 076°36'0 0.0
2017-Feb-08 23:33N 39°17' W 076°36'0 0.0
2017-Feb-08 22:33N 39°17' W 076°36'0 0.0
2017-Feb-08 21:33N 39°17' W 076°36'0 0.0
2017-Feb-08 20:33N 39°17' W 076°36'0 0.0
2017-Feb-08 19:33N 39°17' W 076°36'0 0.0
2017-Feb-08 18:33N 39°17' W 076°36'0 0.0
2017-Feb-08 17:33N 39°17' W 076°36'0 0.0
2017-Feb-08 16:33N 39°17' W 076°36'0 0.0
2017-Feb-08 15:33N 39°17' W 076°36'0 0.0
2017-Feb-08 14:33N 39°17' W 076°36'0 0.0
2017-Feb-08 13:33N 39°17' W 076°36'0 0.0
2017-Feb-08 12:33N 39°17' W 076°36'0 0.0
2017-Feb-08 11:33N 39°17' W 076°36'0 0.0
2017-Feb-08 10:33N 39°17' W 076°36'0 0.0
2017-Feb-08 09:33N 39°17' W 076°36'0 0.0
2017-Feb-08 08:33N 39°17' W 076°36'0 0.0
2017-Feb-08 07:33N 39°17' W 076°36'0 0.0
2017-Feb-08 06:33N 39°17' W 076°36'0 0.0
2017-Feb-08 05:33N 39°17' W 076°36'0 0.0
2017-Feb-08 04:33N 39°17' W 076°36'0 0.0
2017-Feb-08 03:33N 39°17' W 076°36'0 0.0
2017-Feb-08 02:33N 39°17' W 076°36'0 0.0
2017-Feb-08 01:33N 39°17' W 076°36'0 0.0
2017-Feb-08 00:33N 39°17' W 076°36'0 0.0
2017-Feb-07 23:33N 39°17' W 076°36'0 0.0
2017-Feb-07 22:33N 39°17' W 076°36'0 0.0
2017-Feb-07 21:33N 39°17' W 076°36'0 0.0
2017-Feb-07 20:33N 39°17' W 076°36'0 0.0
2017-Feb-07 19:33N 39°17' W 076°36'0 0.0
2017-Feb-07 18:33N 39°17' W 076°36'0 0.0
2017-Feb-07 17:33N 39°17' W 076°36'0 0.0
2017-Feb-07 16:33N 39°17' W 076°36'0 0.1
2017-Feb-07 15:33N 39°17' W 076°36'0 0.0
2017-Feb-07 14:33N 39°17' W 076°36'  
Track history (hours):
 
Tides and Currents Weather Stations Pressure Air Temp Water Temp Dewpoint Dewpoint Depression Visibility Wind Speed Wind Dir Waves Ship Positions

Grande Mariner

Owner: AMERICAN CANADIAN CARIBBEAN LINE INC, WARREN, RI. More information available from US FCC via Universal Licensing System and Coast Guard Vessel Documentation Center.

Last reported at 2017-Feb-17 14:25 UTC. Time now 2017-Mar-23 10:12 UTC.
Position N 41°43' W 071°17'.
Warning: this ship's position is 33 days out of date.

Length 56 m; draft 2 m.

Type: Passenger vessel. MMSI: 369024000.

Date/timePositionNaut miles runAvg speedWind from/ knotsBaromVisibWave heightAir tempDewpointWater temp
2017-Feb-17 14:25N 41°43' W 071°17'0 0.0
2017-Feb-17 11:18N 41°43' W 071°17'  
2017-Feb-12 13:33N 41°43' W 071°17'6 5.4
2017-Feb-12 12:27N 41°38' W 071°18'45 4.1
2017-Feb-12 01:21N 41°14' W 072°09'3 3.1
2017-Feb-12 00:33N 41°13' W 072°13'3 3.1
2017-Feb-11 23:30N 41°12' W 072°17'4 4.0
2017-Feb-11 22:33N 41°11' W 072°22'5 5.0
2017-Feb-11 21:34N 41°10' W 072°28'62 6.9
2017-Feb-11 12:33N 40°50' W 073°46'1111.0
2017-Feb-11 11:33N 40°44' W 073°58'1110.6
2017-Feb-11 10:32N 40°34' W 074°02'4410.6
2017-Feb-11 06:24N 39°50' W 074°02'910.7
2017-Feb-11 05:31N 39°41' W 074°05'63 6.9
2017-Feb-10 20:24N 39°11' W 075°17'1113.4
2017-Feb-10 19:33N 39°20' W 075°25'1211.9
2017-Feb-10 18:33N 39°30' W 075°33'6 6.3
2017-Feb-10 17:33N 39°33' W 075°41'8 7.9
2017-Feb-10 16:33N 39°32' W 075°51'9 9.0
2017-Feb-10 15:33N 39°26' W 076°00'2410.2
2017-Feb-10 13:10N 39°11' W 076°25'6 9.8
2017-Feb-10 12:31N 39°14' W 076°32'4 4.6
2017-Feb-10 11:33N 39°17' W 076°36'0 0.0
2017-Feb-10 10:33N 39°17' W 076°36'0 0.0
2017-Feb-10 09:33N 39°17' W 076°36'0 0.0
2017-Feb-10 08:33N 39°17' W 076°36'0 0.0
2017-Feb-10 07:33N 39°17' W 076°36'0 0.0
2017-Feb-10 06:33N 39°17' W 076°36'0 0.0
2017-Feb-10 05:33N 39°17' W 076°36'0 0.0
2017-Feb-10 04:33N 39°17' W 076°36'0 0.0
2017-Feb-10 03:33N 39°17' W 076°36'0 0.0
2017-Feb-10 02:33N 39°17' W 076°36'0 0.0
2017-Feb-10 01:33N 39°17' W 076°36'0 0.0
2017-Feb-10 00:33N 39°17' W 076°36'0 0.0
2017-Feb-09 23:33N 39°17' W 076°36'0 0.0
2017-Feb-09 22:33N 39°17' W 076°36'0 0.0
2017-Feb-09 21:33N 39°17' W 076°36'0 0.0
2017-Feb-09 20:33N 39°17' W 076°36'0 0.0
2017-Feb-09 19:33N 39°17' W 076°36'0 0.0
2017-Feb-09 18:33N 39°17' W 076°36'0 0.0
2017-Feb-09 17:33N 39°17' W 076°36'0 0.0
2017-Feb-09 16:33N 39°17' W 076°36'0 0.0
2017-Feb-09 15:33N 39°17' W 076°36'0 0.0
2017-Feb-09 14:34N 39°17' W 076°36'0 0.0
2017-Feb-09 13:32N 39°17' W 076°36'0 0.0
2017-Feb-09 12:33N 39°17' W 076°36'0 0.0
2017-Feb-09 11:33N 39°17' W 076°36'0 0.0
2017-Feb-09 10:33N 39°17' W 076°36'0 0.0
2017-Feb-09 09:33N 39°17' W 076°36'0 0.0
2017-Feb-09 08:33N 39°17' W 076°36'0 0.0
2017-Feb-09 07:33N 39°17' W 076°36'0 0.0
2017-Feb-09 06:33N 39°17' W 076°36'0 0.0
2017-Feb-09 05:33N 39°17' W 076°36'0 0.0
2017-Feb-09 04:33N 39°17' W 076°36'0 0.0
2017-Feb-09 03:33N 39°17' W 076°36'0 0.0
2017-Feb-09 02:33N 39°17' W 076°36'0 0.0
2017-Feb-09 01:33N 39°17' W 076°36'0 0.0
2017-Feb-09 00:33N 39°17' W 076°36'0 0.0
2017-Feb-08 23:33N 39°17' W 076°36'0 0.0
2017-Feb-08 22:33N 39°17' W 076°36'0 0.0
2017-Feb-08 21:33N 39°17' W 076°36'0 0.0
2017-Feb-08 20:33N 39°17' W 076°36'0 0.0
2017-Feb-08 19:33N 39°17' W 076°36'0 0.0
2017-Feb-08 18:33N 39°17' W 076°36'0 0.0
2017-Feb-08 17:33N 39°17' W 076°36'0 0.0
2017-Feb-08 16:33N 39°17' W 076°36'0 0.0
2017-Feb-08 15:33N 39°17' W 076°36'0 0.0
2017-Feb-08 14:33N 39°17' W 076°36'0 0.0
2017-Feb-08 13:33N 39°17' W 076°36'0 0.0
2017-Feb-08 12:33N 39°17' W 076°36'0 0.0
2017-Feb-08 11:33N 39°17' W 076°36'0 0.0
2017-Feb-08 10:33N 39°17' W 076°36'0 0.0
2017-Feb-08 09:33N 39°17' W 076°36'0 0.0
2017-Feb-08 08:33N 39°17' W 076°36'0 0.0
2017-Feb-08 07:33N 39°17' W 076°36'0 0.0
2017-Feb-08 06:33N 39°17' W 076°36'0 0.0
2017-Feb-08 05:33N 39°17' W 076°36'0 0.0
2017-Feb-08 04:33N 39°17' W 076°36'0 0.0
2017-Feb-08 03:33N 39°17' W 076°36'0 0.0
2017-Feb-08 02:33N 39°17' W 076°36'0 0.0
2017-Feb-08 01:33N 39°17' W 076°36'0 0.0
2017-Feb-08 00:33N 39°17' W 076°36'0 0.0
2017-Feb-07 23:33N 39°17' W 076°36'0 0.0
2017-Feb-07 22:33N 39°17' W 076°36'0 0.0
2017-Feb-07 21:33N 39°17' W 076°36'0 0.0
2017-Feb-07 20:33N 39°17' W 076°36'0 0.0
2017-Feb-07 19:33N 39°17' W 076°36'0 0.0
2017-Feb-07 18:33N 39°17' W 076°36'0 0.0
2017-Feb-07 17:33N 39°17' W 076°36'0 0.0
2017-Feb-07 16:33N 39°17' W 076°36'0 0.1
2017-Feb-07 15:33N 39°17' W 076°36'0 0.0
2017-Feb-07 14:33N 39°17' W 076°36'  

Dump ship's entire track history